createdAt,value
2022-10-05T00:00:03.130Z,3.42
2022-10-05T00:02:32.601Z,1.73
2022-10-05T00:04:59.594Z,2.05
2022-10-05T00:07:29.928Z,1.92
2022-10-05T00:09:59.144Z,2.75
2022-10-05T00:12:28.511Z,4.07
2022-10-05T00:15:00.096Z,3.88
2022-10-05T00:17:36.665Z,1.52
2022-10-05T00:20:20.460Z,2.08
2022-10-05T00:22:47.924Z,2.85
2022-10-05T00:25:21.391Z,1.73
2022-10-05T00:27:57.702Z,1.90
2022-10-05T00:30:30.959Z,1.65
2022-10-05T00:32:59.768Z,3.30
2022-10-05T00:35:30.456Z,4.20
2022-10-05T00:37:57.617Z,2.17
2022-10-05T00:41:02.727Z,2.80
2022-10-05T00:44:00.775Z,1.77
2022-10-05T00:47:08.803Z,1.63
2022-10-05T00:50:00.297Z,2.72
2022-10-05T00:52:45.568Z,3.55
2022-10-05T00:55:56.078Z,1.55
2022-10-05T00:58:37.178Z,1.80
2022-10-05T01:01:14.971Z,2.00
2022-10-05T01:04:05.763Z,3.85
2022-10-05T01:06:52.291Z,1.30
2022-10-05T01:09:44.839Z,2.60
2022-10-05T01:12:30.843Z,1.85
2022-10-05T01:15:07.905Z,1.73
2022-10-05T01:18:02.068Z,1.17
2022-10-05T01:20:50.119Z,1.95
2022-10-05T01:23:25.979Z,1.30
2022-10-05T01:26:11.253Z,2.00
2022-10-05T01:28:47.994Z,1.45
2022-10-05T01:31:46.646Z,2.80
2022-10-05T01:34:41.459Z,1.75
2022-10-05T01:37:22.657Z,1.88
2022-10-05T01:39:55.509Z,1.90
2022-10-05T01:42:33.832Z,0.75
2022-10-05T01:45:19.238Z,3.22
2022-10-05T01:47:55.264Z,2.58
2022-10-05T01:50:59.817Z,1.52
2022-10-05T01:53:57.120Z,0.82
2022-10-05T01:59:23.090Z,0.82
2022-10-05T02:02:13.034Z,1.17
2022-10-05T02:05:02.328Z,2.67
2022-10-05T02:07:49.593Z,2.40
2022-10-05T02:11:09.684Z,0.93
2022-10-05T02:13:53.189Z,2.42
2022-10-05T02:16:43.313Z,0.20
2022-10-05T02:19:25.736Z,1.52
2022-10-05T02:22:06.457Z,0.10
2022-10-05T02:24:42.827Z,0.43
2022-10-05T02:29:42.681Z,0.63
2022-10-05T02:32:26.780Z,1.75
2022-10-05T02:34:59.213Z,0.52
2022-10-05T02:37:54.385Z,0.40
2022-10-05T02:40:36.589Z,1.02
2022-10-05T02:43:09.628Z,0.10
2022-10-05T02:45:51.999Z,0.20
2022-10-05T02:48:34.128Z,1.35
2022-10-05T02:51:03.740Z,3.20
2022-10-05T02:53:55.743Z,5.47
2022-10-05T02:56:50.128Z,5.32
2022-10-05T02:59:42.502Z,1.23
2022-10-05T03:02:23.314Z,9.27
2022-10-05T03:04:53.436Z,7.20
2022-10-05T03:07:31.275Z,7.22
2022-10-05T03:10:06.987Z,9.48
2022-10-05T03:12:54.310Z,9.38
2022-10-05T03:15:49.756Z,12.13
2022-10-05T03:18:54.637Z,4.72
2022-10-05T03:21:48.993Z,5.88
2022-10-05T03:24:19.456Z,4.93
2022-10-05T03:27:30.995Z,10.20
2022-10-05T03:30:15.456Z,6.22
2022-10-05T03:32:51.271Z,12.80
2022-10-05T03:35:29.100Z,4.32
2022-10-05T03:38:25.949Z,6.35
2022-10-05T03:41:30.142Z,6.90
2022-10-05T03:44:06.242Z,5.55
2022-10-05T03:46:48.821Z,4.03
2022-10-05T03:49:51.866Z,4.20
2022-10-05T03:52:34.408Z,2.58
2022-10-05T03:55:25.030Z,3.25
2022-10-05T03:57:56.689Z,2.47
2022-10-05T04:00:23.916Z,1.25
2022-10-05T04:03:00.695Z,1.20
2022-10-05T04:05:41.790Z,1.10
2022-10-05T04:08:35.704Z,0.65
2022-10-05T04:11:11.054Z,1.40
2022-10-05T04:13:44.411Z,0.73
2022-10-05T04:16:24.718Z,0.30
2022-10-05T04:19:00.010Z,0.63
2022-10-05T04:21:32.361Z,0.35
2022-10-05T04:24:25.102Z,0.38
2022-10-05T04:26:59.316Z,1.83
2022-10-05T04:29:59.032Z,0.30
2022-10-05T04:32:44.336Z,1.27
2022-10-05T04:35:56.454Z,1.05
2022-10-05T04:38:58.831Z,0.10
2022-10-05T04:41:25.793Z,0.45
2022-10-05T04:44:28.160Z,0.20
2022-10-05T04:47:29.724Z,0.43
2022-10-05T04:50:34.443Z,0.05
2022-10-05T04:53:13.700Z,0.40
2022-10-05T04:55:57.218Z,0.10
2022-10-05T04:58:41.426Z,0.00
2022-10-05T05:01:43.584Z,0.10
2022-10-05T05:04:41.455Z,1.60
2022-10-05T05:07:39.854Z,6.93
2022-10-05T05:10:26.984Z,0.00
2022-10-05T05:13:14.121Z,0.32
2022-10-05T05:16:22.734Z,0.00
2022-10-05T05:18:49.672Z,0.20
2022-10-05T05:21:40.204Z,0.00
2022-10-05T05:24:34.159Z,0.25
2022-10-05T05:27:26.915Z,0.00
2022-10-05T05:30:12.603Z,0.10
2022-10-05T05:32:54.859Z,0.15
2022-10-05T05:35:24.524Z,0.00
2022-10-05T05:38:06.818Z,0.00
2022-10-05T05:40:40.512Z,0.00
2022-10-05T05:43:26.881Z,0.05
2022-10-05T05:46:02.955Z,0.08
2022-10-05T05:48:41.461Z,0.20
2022-10-05T05:51:13.682Z,0.10
2022-10-05T05:53:51.391Z,0.20
2022-10-05T05:56:25.528Z,0.00
2022-10-05T20:59:58.051Z,3.83
2022-10-05T21:02:25.010Z,0.25
2022-10-05T21:04:51.993Z,3.10
2022-10-05T21:07:21.192Z,3.03
2022-10-05T21:09:48.111Z,0.20
2022-10-05T21:12:16.452Z,0.30
2022-10-05T21:14:43.470Z,0.75
2022-10-05T21:17:12.061Z,0.65
2022-10-05T21:19:39.536Z,2.60
2022-10-05T21:22:10.185Z,1.00
2022-10-05T21:24:38.693Z,1.30
2022-10-05T21:27:06.085Z,0.00
2022-10-05T21:29:34.462Z,0.30
2022-10-05T21:32:01.567Z,0.73
2022-10-05T21:34:28.890Z,1.95
2022-10-05T21:36:55.926Z,0.80
2022-10-05T21:39:23.710Z,3.53
2022-10-05T21:41:50.750Z,2.35
2022-10-05T21:44:18.299Z,1.80
2022-10-05T21:46:45.423Z,2.38
2022-10-05T21:49:16.084Z,2.03
2022-10-05T21:51:48.169Z,2.70
2022-10-05T21:54:19.830Z,3.17
2022-10-05T21:56:54.496Z,1.90
2022-10-05T21:59:27.093Z,0.13
2022-10-05T22:01:54.142Z,1.92
2022-10-05T22:04:21.132Z,2.15
2022-10-05T22:06:49.366Z,0.20
2022-10-05T22:09:16.367Z,1.95
2022-10-05T22:11:47.939Z,0.52
2022-10-05T22:14:15.686Z,2.15
2022-10-05T22:16:44.169Z,0.55
2022-10-05T22:19:15.850Z,0.70
2022-10-05T22:21:42.906Z,1.13
2022-10-05T22:24:11.714Z,0.52
2022-10-05T22:26:40.381Z,1.85
2022-10-05T22:29:07.413Z,2.17
2022-10-05T22:31:34.767Z,1.23
2022-10-05T22:34:01.824Z,1.25
2022-10-05T22:36:29.015Z,0.47
2022-10-05T22:38:56.000Z,0.40
2022-10-05T22:41:23.106Z,0.85
2022-10-05T22:43:51.343Z,0.68
2022-10-05T22:46:19.193Z,0.60
2022-10-05T22:48:46.380Z,0.93
2022-10-05T22:51:13.456Z,0.73
2022-10-05T22:53:40.519Z,0.80
2022-10-05T22:56:12.616Z,0.32
2022-10-05T22:58:40.732Z,1.65
2022-10-05T23:01:10.673Z,0.57
2022-10-05T23:03:38.058Z,1.33
2022-10-05T23:06:11.277Z,1.40
2022-10-05T23:08:38.912Z,2.65
2022-10-05T23:11:15.983Z,0.10
2022-10-05T23:13:43.174Z,1.98
2022-10-05T23:16:15.702Z,0.40
2022-10-05T23:18:43.763Z,1.17
2022-10-05T23:21:11.408Z,1.23
2022-10-05T23:23:40.346Z,0.22
2022-10-05T23:26:09.927Z,2.58
2022-10-05T23:28:38.883Z,0.90
2022-10-05T23:31:07.610Z,3.75
2022-10-05T23:33:35.031Z,0.47
2022-10-05T23:36:02.847Z,3.05
2022-10-05T23:38:30.354Z,1.27
2022-10-05T23:40:58.959Z,4.05
2022-10-05T23:43:26.939Z,1.85
2022-10-05T23:45:53.995Z,3.08
2022-10-05T23:48:20.962Z,1.35
2022-10-05T23:50:49.332Z,1.73
2022-10-05T23:53:17.744Z,0.63
2022-10-05T23:55:44.892Z,1.90
2022-10-05T23:58:12.235Z,1.08
